createdAt,value
2022-08-04T00:00:24.609Z,2.10
2022-08-04T00:01:24.588Z,2.60
2022-08-04T00:02:24.553Z,2.90
2022-08-04T00:03:24.528Z,2.40
2022-08-04T00:04:24.518Z,2.50
2022-08-04T00:05:24.494Z,2.50
2022-08-04T00:06:24.474Z,2.50
2022-08-04T00:07:44.625Z,2.80
2022-08-04T00:08:24.469Z,2.30
2022-08-04T00:09:24.482Z,2.80
2022-08-04T00:10:24.442Z,2.40
2022-08-04T00:11:24.437Z,2.80
2022-08-04T00:12:29.398Z,2.90
2022-08-04T00:13:24.427Z,2.90
2022-08-04T00:14:24.401Z,2.70
2022-08-04T00:15:24.412Z,2.80
2022-08-04T00:16:24.367Z,2.50
2022-08-04T00:17:24.388Z,2.70
2022-08-04T00:18:24.396Z,2.50
2022-08-04T00:19:24.405Z,2.40
2022-08-04T00:20:24.358Z,2.80
2022-08-04T00:21:24.328Z,2.70
2022-08-04T00:22:24.323Z,2.30
2022-08-04T00:23:24.330Z,2.40
2022-08-04T00:24:24.309Z,2.00
2022-08-04T00:25:24.299Z,2.50
2022-08-04T00:26:26.297Z,2.60
2022-08-04T00:27:24.315Z,2.50
2022-08-04T00:28:24.245Z,2.40
2022-08-04T00:29:24.300Z,2.50
2022-08-04T00:30:24.237Z,2.40
2022-08-04T00:31:53.630Z,2.30
2022-08-04T00:32:33.929Z,2.40
2022-08-04T00:33:24.224Z,2.00
2022-08-04T00:34:24.200Z,2.50
2022-08-04T00:35:24.184Z,2.30
2022-08-04T00:36:24.198Z,2.30
2022-08-04T00:37:24.161Z,2.70
2022-08-04T00:38:24.149Z,2.30
2022-08-04T00:39:24.277Z,2.20
2022-08-04T00:40:24.129Z,2.60
2022-08-04T00:41:24.123Z,2.60
2022-08-04T00:42:24.131Z,2.50
2022-08-04T00:43:24.100Z,2.40
2022-08-04T00:44:24.269Z,2.60
2022-08-04T00:45:24.123Z,2.20
2022-08-04T00:46:24.084Z,2.40
2022-08-04T00:47:24.112Z,2.40
2022-08-04T00:48:24.056Z,2.70
2022-08-04T00:49:24.061Z,2.30
2022-08-04T00:50:24.024Z,2.20
2022-08-04T00:51:24.120Z,2.30
2022-08-04T00:52:32.786Z,2.20
2022-08-04T00:53:24.001Z,2.60
2022-08-04T00:54:24.001Z,2.30
2022-08-04T00:55:23.979Z,2.50
2022-08-04T00:56:24.005Z,2.30
2022-08-04T00:57:33.710Z,2.60
2022-08-04T00:58:23.983Z,2.60
2022-08-04T00:59:23.953Z,2.20
2022-08-04T01:00:23.946Z,2.40
2022-08-04T01:01:23.948Z,2.60
2022-08-04T01:02:23.906Z,2.40
2022-08-04T01:03:23.918Z,2.70
2022-08-04T01:04:23.903Z,2.50
2022-08-04T01:05:23.890Z,2.50
2022-08-04T01:06:23.868Z,2.30
2022-08-04T01:07:23.982Z,2.60
2022-08-04T01:08:23.844Z,2.50
2022-08-04T01:09:23.879Z,2.70
2022-08-04T01:10:23.821Z,2.30
2022-08-04T01:11:23.817Z,2.40
2022-08-04T01:12:23.820Z,2.70
2022-08-04T01:13:23.800Z,2.60
2022-08-04T01:14:25.698Z,2.60
2022-08-04T01:15:23.793Z,2.40
2022-08-04T01:16:23.762Z,2.60
2022-08-04T01:17:24.107Z,2.40
2022-08-04T01:18:23.762Z,2.20
2022-08-04T01:19:23.752Z,2.20
2022-08-04T01:20:23.721Z,2.50
2022-08-04T01:21:23.717Z,2.30
2022-08-04T01:22:23.697Z,2.70
2022-08-04T01:23:23.715Z,2.20
2022-08-04T01:24:23.721Z,2.20
2022-08-04T01:25:24.153Z,2.20
2022-08-04T01:26:42.246Z,2.20
2022-08-04T01:27:23.659Z,2.30
2022-08-04T01:28:23.650Z,2.30
2022-08-04T01:29:23.670Z,2.70
2022-08-04T01:30:23.613Z,2.50
2022-08-04T01:31:23.628Z,2.50
2022-08-04T01:32:26.184Z,2.30
2022-08-04T01:33:23.596Z,2.60
2022-08-04T01:34:23.602Z,2.30
2022-08-04T01:35:48.284Z,2.40
2022-08-04T01:36:23.604Z,2.60
2022-08-04T01:37:23.725Z,2.30
2022-08-04T01:38:23.540Z,2.60
2022-08-04T01:39:23.617Z,2.30
2022-08-04T01:40:23.584Z,2.60
2022-08-04T01:41:32.159Z,2.40
2022-08-04T01:42:32.064Z,2.60
2022-08-04T01:43:23.506Z,2.80
2022-08-04T01:44:23.497Z,2.60
2022-08-04T01:45:23.473Z,2.30
2022-08-04T01:46:23.463Z,2.10
2022-08-04T01:47:23.755Z,2.30
2022-08-04T01:48:23.449Z,2.50
2022-08-04T01:49:23.460Z,2.30
2022-08-04T01:50:23.438Z,2.50
2022-08-04T01:51:23.480Z,2.70
2022-08-04T01:52:23.424Z,2.10
2022-08-04T01:53:23.389Z,2.30
2022-08-04T01:54:23.370Z,2.30
2022-08-04T01:55:23.381Z,2.40
2022-08-04T01:56:23.350Z,2.30
2022-08-04T01:57:38.733Z,2.40
2022-08-04T01:58:23.372Z,2.20
2022-08-04T01:59:23.324Z,2.30
2022-08-04T02:00:23.336Z,2.20
2022-08-04T02:01:23.370Z,2.30
2022-08-04T02:02:23.364Z,2.30
2022-08-04T02:03:23.294Z,2.10
2022-08-04T02:04:26.844Z,2.30
2022-08-04T02:05:23.279Z,2.00
2022-08-04T02:06:23.249Z,2.40
2022-08-04T02:07:23.550Z,2.30
2022-08-04T02:08:23.228Z,2.30
2022-08-04T02:09:23.225Z,2.10
2022-08-04T02:10:23.232Z,2.20
2022-08-04T02:11:23.240Z,2.80
2022-08-04T02:12:23.209Z,2.30
2022-08-04T02:13:23.205Z,2.30
2022-08-04T02:14:23.171Z,2.30
2022-08-04T02:15:23.180Z,2.20
2022-08-04T02:16:23.189Z,2.40
2022-08-04T02:17:23.307Z,2.40
2022-08-04T02:18:23.135Z,2.10
2022-08-04T02:19:23.154Z,2.40
2022-08-04T02:20:23.121Z,2.10
2022-08-04T02:21:23.105Z,2.10
2022-08-04T02:22:23.105Z,2.20
2022-08-04T02:23:23.090Z,2.20
2022-08-04T02:24:23.062Z,2.20
2022-08-04T02:25:23.085Z,2.10
2022-08-04T02:26:23.231Z,2.20
2022-08-04T02:27:23.325Z,2.10
2022-08-04T02:28:23.047Z,2.40
2022-08-04T02:29:23.034Z,2.00
2022-08-04T02:30:23.027Z,2.40
2022-08-04T02:31:23.002Z,2.30
2022-08-04T02:32:23.065Z,2.20
2022-08-04T02:33:22.997Z,2.00
2022-08-04T02:34:22.990Z,2.00
2022-08-04T02:35:22.989Z,1.90
2022-08-04T02:36:22.952Z,2.20
2022-08-04T02:37:23.251Z,2.10
2022-08-04T02:38:25.706Z,2.10
2022-08-04T02:39:23.015Z,2.20
2022-08-04T02:40:22.927Z,2.40
2022-08-04T02:41:22.906Z,2.10
2022-08-04T02:42:22.902Z,2.20
2022-08-04T02:43:51.931Z,2.10
2022-08-04T02:44:22.875Z,1.90
2022-08-04T02:45:22.892Z,2.30
2022-08-04T02:46:22.870Z,2.30
2022-08-04T02:47:23.198Z,2.30
2022-08-04T02:48:31.039Z,2.30
2022-08-04T02:49:22.821Z,2.50
2022-08-04T02:50:28.468Z,2.50
2022-08-04T02:51:22.798Z,2.20
2022-08-04T02:52:22.824Z,2.40
2022-08-04T02:53:22.774Z,2.10
2022-08-04T02:54:32.596Z,2.60
2022-08-04T02:55:22.760Z,2.20
2022-08-04T02:56:23.500Z,2.30
2022-08-04T02:57:22.995Z,2.10
2022-08-04T02:58:22.724Z,2.40
2022-08-04T02:59:22.693Z,2.30
2022-08-04T03:00:22.651Z,2.60
2022-08-04T03:01:22.781Z,1.90
2022-08-04T03:02:22.697Z,2.30
2022-08-04T03:03:22.676Z,2.30
2022-08-04T03:04:25.124Z,2.20
2022-08-04T03:05:22.652Z,2.20
2022-08-04T03:06:22.652Z,2.30
2022-08-04T03:07:22.817Z,2.40
2022-08-04T03:08:22.651Z,2.60
2022-08-04T03:09:22.591Z,2.30
2022-08-04T03:10:22.570Z,2.40
2022-08-04T03:11:22.561Z,2.40
2022-08-04T03:12:22.528Z,2.60
2022-08-04T03:13:22.563Z,2.40
2022-08-04T03:14:22.627Z,2.40
2022-08-04T03:15:22.503Z,2.30
2022-08-04T03:16:22.527Z,2.60
2022-08-04T03:17:22.669Z,2.50
2022-08-04T03:18:22.466Z,2.80
2022-08-04T03:19:22.474Z,2.30
2022-08-04T03:20:22.471Z,2.30
2022-08-04T03:21:22.435Z,2.40
2022-08-04T03:22:22.430Z,2.00
2022-08-04T03:23:22.419Z,2.20
2022-08-04T03:24:22.439Z,3.00
2022-08-04T03:25:22.399Z,2.60
2022-08-04T03:26:22.378Z,2.20
2022-08-04T03:27:22.619Z,2.70
2022-08-04T03:28:22.358Z,2.30
2022-08-04T03:29:36.871Z,2.50
2022-08-04T03:30:22.387Z,2.20
2022-08-04T03:31:22.338Z,2.50
2022-08-04T03:32:22.333Z,2.40
2022-08-04T03:33:22.339Z,2.70
2022-08-04T03:34:22.303Z,2.40
2022-08-04T03:35:22.867Z,2.60
2022-08-04T03:36:23.580Z,2.30
2022-08-04T03:37:22.594Z,2.70
2022-08-04T03:38:22.261Z,2.80
2022-08-04T03:39:22.299Z,2.50
2022-08-04T03:40:22.279Z,2.30
2022-08-04T03:42:03.567Z,2.40
2022-08-04T03:42:22.225Z,2.30
2022-08-04T03:43:57.241Z,2.50
2022-08-04T03:44:22.215Z,2.70
2022-08-04T03:45:24.068Z,2.80
2022-08-04T03:46:22.197Z,2.90
2022-08-04T03:47:22.494Z,2.70
2022-08-04T03:48:22.153Z,3.20
2022-08-04T03:49:22.152Z,5.10
2022-08-04T03:50:22.157Z,4.40
2022-08-04T03:51:34.909Z,3.90
2022-08-04T03:52:22.150Z,4.20
2022-08-04T03:53:22.146Z,4.00
2022-08-04T03:54:22.101Z,3.40
2022-08-04T03:55:22.107Z,3.70
2022-08-04T03:56:22.164Z,3.40
2022-08-04T03:57:22.403Z,2.50
2022-08-04T03:58:22.062Z,2.90
2022-08-04T03:59:22.054Z,2.70
2022-08-04T04:00:22.063Z,3.30
2022-08-04T04:01:22.055Z,3.80
2022-08-04T04:02:22.052Z,4.00
2022-08-04T04:03:28.132Z,2.90
2022-08-04T04:04:22.007Z,3.20
2022-08-04T04:05:22.015Z,2.80
2022-08-04T04:06:21.987Z,2.70
2022-08-04T04:07:24.447Z,2.80
2022-08-04T04:08:21.983Z,2.80
2022-08-04T04:09:21.965Z,2.70
2022-08-04T04:10:28.752Z,2.60
2022-08-04T04:11:21.935Z,2.50
2022-08-04T04:12:21.912Z,2.70
2022-08-04T04:13:21.917Z,2.50
2022-08-04T04:14:21.894Z,3.20
2022-08-04T04:15:21.903Z,3.10
2022-08-04T04:16:21.917Z,7.10
2022-08-04T04:17:22.335Z,3.50
2022-08-04T04:18:21.856Z,2.70
2022-08-04T04:19:21.838Z,2.70
2022-08-04T04:20:21.872Z,2.80
2022-08-04T04:21:21.830Z,2.80
2022-08-04T04:22:21.830Z,3.60
2022-08-04T04:23:21.812Z,3.00
2022-08-04T04:24:21.824Z,4.50
2022-08-04T04:25:21.837Z,5.00
2022-08-04T04:26:21.776Z,3.20
2022-08-04T04:27:22.045Z,4.20
2022-08-04T04:28:45.507Z,3.50
2022-08-04T04:29:21.774Z,3.10
2022-08-04T04:30:21.916Z,2.70
2022-08-04T04:31:21.716Z,2.50
2022-08-04T04:32:21.727Z,2.70
2022-08-04T04:33:21.701Z,2.80
2022-08-04T04:34:21.711Z,2.60
2022-08-04T04:35:21.745Z,2.90
2022-08-04T04:36:21.705Z,3.50
2022-08-04T04:37:22.012Z,3.10
2022-08-04T04:38:21.663Z,3.40
2022-08-04T04:39:21.747Z,4.00
2022-08-04T04:40:21.756Z,4.40
2022-08-04T04:41:21.607Z,3.80
2022-08-04T04:42:21.684Z,3.30
2022-08-04T04:43:21.594Z,3.10
2022-08-04T04:44:21.590Z,3.50
2022-08-04T04:45:21.617Z,3.10
2022-08-04T04:46:21.590Z,3.30
2022-08-04T04:48:04.053Z,3.40
2022-08-04T04:48:21.560Z,3.10
2022-08-04T04:49:21.541Z,3.00
2022-08-04T04:50:21.543Z,3.30
2022-08-04T04:51:21.522Z,3.10
2022-08-04T04:52:21.549Z,2.80
2022-08-04T04:53:21.496Z,3.40
2022-08-04T04:54:21.476Z,3.10
2022-08-04T04:55:21.502Z,2.70
2022-08-04T04:56:21.462Z,3.10
2022-08-04T04:57:23.170Z,3.20
2022-08-04T04:58:21.454Z,3.10
2022-08-04T04:59:21.438Z,2.80
2022-08-04T05:00:21.439Z,3.40
2022-08-04T05:01:21.402Z,3.00
2022-08-04T05:02:21.420Z,3.10
2022-08-04T05:03:21.398Z,3.40
2022-08-04T05:04:21.393Z,3.30
2022-08-04T05:05:21.399Z,3.00
2022-08-04T05:06:21.373Z,3.10
2022-08-04T05:07:21.633Z,3.00
2022-08-04T05:08:44.749Z,3.20
2022-08-04T05:09:21.328Z,3.30
2022-08-04T05:10:21.349Z,3.60
2022-08-04T05:11:21.311Z,3.40
2022-08-04T05:14:30.008Z,3.30
2022-08-04T05:14:43.832Z,3.30
2022-08-04T05:14:48.845Z,3.30
2022-08-04T05:15:48.837Z,3.40
2022-08-04T05:16:48.866Z,3.50
2022-08-04T05:17:48.811Z,3.20
2022-08-04T05:18:48.801Z,3.30
2022-08-04T05:19:48.846Z,3.10
2022-08-04T05:20:48.855Z,3.40
2022-08-04T05:21:48.816Z,3.60
2022-08-04T05:22:48.773Z,3.30
2022-08-04T05:23:48.759Z,3.60
2022-08-04T05:24:48.757Z,3.90
2022-08-04T05:25:58.689Z,3.90
2022-08-04T05:26:48.752Z,3.60
2022-08-04T05:27:48.702Z,3.50
2022-08-04T05:28:48.699Z,3.70
2022-08-04T05:29:48.716Z,3.70
2022-08-04T05:30:48.868Z,3.40
2022-08-04T05:31:48.657Z,3.30
2022-08-04T05:32:48.656Z,4.50
2022-08-04T05:33:48.672Z,5.90
2022-08-04T05:34:48.643Z,3.80
2022-08-04T05:36:18.618Z,3.80
2022-08-04T05:36:48.633Z,3.60
2022-08-04T05:37:48.604Z,3.00
2022-08-04T05:38:48.595Z,3.30
2022-08-04T05:39:48.599Z,3.30
2022-08-04T05:40:48.603Z,4.30
2022-08-04T05:41:55.577Z,4.60
2022-08-04T05:42:48.570Z,3.60
2022-08-04T05:43:48.541Z,3.50
2022-08-04T05:44:51.106Z,4.50
2022-08-04T05:45:48.542Z,3.70
2022-08-04T05:46:54.364Z,3.60
2022-08-04T05:47:48.529Z,3.90
2022-08-04T05:48:48.491Z,3.50
2022-08-04T05:50:01.546Z,3.90
2022-08-04T05:50:48.489Z,3.30
2022-08-04T05:51:48.453Z,3.40
2022-08-04T05:52:48.488Z,3.40
2022-08-04T05:53:48.584Z,3.60
2022-08-04T05:54:48.430Z,3.60
2022-08-04T05:55:59.231Z,3.60
2022-08-04T05:56:48.500Z,3.70
2022-08-04T05:57:51.785Z,3.50
2022-08-04T05:58:48.393Z,3.30
2022-08-04T05:59:48.375Z,3.50
2022-08-04T06:00:51.594Z,3.70
2022-08-04T06:01:55.139Z,3.40
2022-08-04T06:02:48.359Z,3.70
2022-08-04T06:03:48.328Z,3.00
2022-08-04T06:04:48.419Z,3.20
2022-08-04T06:05:48.421Z,3.60
2022-08-04T06:06:48.315Z,3.60
2022-08-04T06:08:12.624Z,3.40
2022-08-04T06:08:48.333Z,3.30
2022-08-04T06:09:48.287Z,2.80
2022-08-04T06:10:48.329Z,3.40
2022-08-04T06:12:00.876Z,3.30
2022-08-04T06:12:48.503Z,3.20
2022-08-04T06:13:50.824Z,3.20
2022-08-04T06:14:48.294Z,3.30
2022-08-04T06:15:48.317Z,3.30
2022-08-04T06:16:51.355Z,3.50
2022-08-04T06:19:56.569Z,3.40
2022-08-04T06:20:19.140Z,3.60
2022-08-04T06:20:27.195Z,3.00
2022-08-04T06:21:17.232Z,3.50
2022-08-04T06:22:17.065Z,3.20
2022-08-04T06:23:17.116Z,3.00
2022-08-04T06:24:17.051Z,3.20
2022-08-04T06:25:17.059Z,3.50
2022-08-04T06:26:17.043Z,3.10
2022-08-04T06:27:17.918Z,3.00
2022-08-04T06:28:17.008Z,3.30
2022-08-04T06:29:16.997Z,3.50
2022-08-04T06:30:17.101Z,3.20
2022-08-04T06:32:27.208Z,3.20
2022-08-04T06:32:41.436Z,3.50
2022-08-04T06:33:16.963Z,2.90
2022-08-04T06:34:16.989Z,2.90
2022-08-04T06:35:16.983Z,3.30
2022-08-04T06:36:16.945Z,3.00
2022-08-04T06:37:40.850Z,3.50
2022-08-04T06:38:16.894Z,3.20
2022-08-04T06:39:16.954Z,3.10
2022-08-04T06:40:31.570Z,2.90
2022-08-04T06:41:16.918Z,3.10
2022-08-04T06:42:22.449Z,3.20
2022-08-04T06:43:16.893Z,3.20
2022-08-04T06:44:16.878Z,3.30
2022-08-04T06:45:16.889Z,5.20
2022-08-04T06:46:17.106Z,3.20
2022-08-04T06:47:16.821Z,3.60
2022-08-04T06:48:16.782Z,3.60
2022-08-04T06:49:16.821Z,3.40
2022-08-04T06:51:25.115Z,3.30
2022-08-04T06:51:45.243Z,3.20
2022-08-04T06:52:16.844Z,3.60
2022-08-04T06:53:16.786Z,3.50
2022-08-04T06:54:16.799Z,3.10
2022-08-04T06:55:16.771Z,3.10
2022-08-04T06:56:16.796Z,3.10
2022-08-04T06:57:16.717Z,3.00
2022-08-04T06:58:16.698Z,3.60
2022-08-04T06:59:16.692Z,3.20
2022-08-04T07:00:16.680Z,3.40
2022-08-04T07:01:16.758Z,2.80
2022-08-04T07:02:16.662Z,3.00
2022-08-04T07:03:16.658Z,3.00
2022-08-04T07:04:16.659Z,3.00
2022-08-04T07:05:16.676Z,3.20
2022-08-04T07:06:16.668Z,3.50
2022-08-04T07:07:16.638Z,3.40
2022-08-04T07:08:16.618Z,3.00
2022-08-04T07:09:16.721Z,2.70
2022-08-04T07:10:17.909Z,2.80
2022-08-04T07:11:16.551Z,2.60
2022-08-04T07:12:16.533Z,2.80
2022-08-04T07:13:16.630Z,2.70
2022-08-04T07:14:16.585Z,2.50
2022-08-04T07:15:16.649Z,2.70
2022-08-04T07:16:16.570Z,2.70
2022-08-04T07:17:16.516Z,2.40
2022-08-04T07:18:16.459Z,2.60
2022-08-04T07:19:19.049Z,2.70
2022-08-04T07:20:16.507Z,2.60
2022-08-04T07:21:16.437Z,2.70
2022-08-04T07:22:24.843Z,2.70
2022-08-04T07:23:16.426Z,2.50
2022-08-04T07:24:16.398Z,2.80
2022-08-04T07:25:16.509Z,3.00
2022-08-04T07:26:16.372Z,3.10
2022-08-04T07:27:16.374Z,2.80
2022-08-04T07:28:16.367Z,2.60
2022-08-04T07:29:16.361Z,2.50
2022-08-04T07:30:16.364Z,2.60
2022-08-04T07:31:16.591Z,2.70
2022-08-04T07:32:16.371Z,2.80
2022-08-04T07:33:16.320Z,2.20
2022-08-04T07:34:20.646Z,2.20
2022-08-04T07:36:04.744Z,2.60
2022-08-04T07:36:16.283Z,2.70
2022-08-04T07:37:16.273Z,2.70
2022-08-04T07:38:16.293Z,2.70
2022-08-04T07:39:28.605Z,2.30
2022-08-04T07:40:16.286Z,2.90
2022-08-04T07:42:16.225Z,2.40
2022-08-04T07:43:16.203Z,2.50
2022-08-04T07:44:16.203Z,2.40
2022-08-04T07:45:16.482Z,2.60
2022-08-04T07:46:16.363Z,2.30
2022-08-04T07:47:16.208Z,2.70
2022-08-04T07:48:16.178Z,2.80
2022-08-04T07:49:54.792Z,2.50
2022-08-04T07:50:16.207Z,2.10
2022-08-04T07:51:16.190Z,2.50
2022-08-04T07:52:16.177Z,2.60
2022-08-04T07:53:53.290Z,2.30
2022-08-04T07:54:16.097Z,2.30
2022-08-04T07:55:16.097Z,2.00
2022-08-04T07:56:16.078Z,2.20
2022-08-04T07:57:19.629Z,2.20
2022-08-04T07:58:16.068Z,2.10
2022-08-04T07:59:16.083Z,2.20
2022-08-04T08:00:16.170Z,2.20
2022-08-04T08:01:16.046Z,2.40
2022-08-04T08:02:16.053Z,2.40
2022-08-04T08:03:16.143Z,2.40
2022-08-04T08:04:16.032Z,2.40
2022-08-04T08:05:16.019Z,3.30
2022-08-04T08:06:30.370Z,2.40
2022-08-04T08:07:15.992Z,2.90
2022-08-04T08:08:15.979Z,2.70
2022-08-04T08:09:15.982Z,2.50
2022-08-04T08:10:15.974Z,2.40
2022-08-04T08:11:15.919Z,2.20
2022-08-04T08:12:37.483Z,2.50
2022-08-04T08:13:15.914Z,2.10
2022-08-04T08:14:15.900Z,2.40
2022-08-04T08:15:16.066Z,2.30
2022-08-04T08:16:15.922Z,2.30
2022-08-04T08:17:15.886Z,2.20
2022-08-04T08:18:15.884Z,2.10
2022-08-04T08:19:15.890Z,2.60
2022-08-04T08:20:15.860Z,2.20
2022-08-04T08:21:15.882Z,2.40
2022-08-04T08:22:15.832Z,3.20
2022-08-04T08:23:15.838Z,2.80
2022-08-04T08:24:15.825Z,2.40
2022-08-04T08:25:15.819Z,2.10
2022-08-04T08:26:15.812Z,2.20
2022-08-04T08:27:15.797Z,2.20
2022-08-04T08:28:15.787Z,2.10
2022-08-04T08:29:15.787Z,1.80
2022-08-04T08:30:15.794Z,2.10
2022-08-04T08:31:15.755Z,1.90
2022-08-04T08:32:15.755Z,2.10
2022-08-04T08:33:15.727Z,2.00
2022-08-04T08:34:21.638Z,1.70
2022-08-04T08:35:15.730Z,2.80
2022-08-04T08:36:15.717Z,2.00
2022-08-04T08:37:15.714Z,1.80
2022-08-04T08:38:15.699Z,2.20
2022-08-04T08:39:15.737Z,2.00
2022-08-04T08:40:15.712Z,1.80
2022-08-04T08:41:15.708Z,2.10
2022-08-04T08:42:15.688Z,2.00
2022-08-04T08:44:04.482Z,2.00
2022-08-04T08:44:19.240Z,2.00
2022-08-04T08:45:17.649Z,1.90
2022-08-04T08:46:15.626Z,2.00
2022-08-04T08:47:15.659Z,2.00
2022-08-04T08:48:15.610Z,2.00
2022-08-04T08:50:02.765Z,2.00
2022-08-04T08:50:15.625Z,2.00
2022-08-04T08:51:15.629Z,2.00
2022-08-04T08:52:15.560Z,1.90
2022-08-04T08:53:15.549Z,2.20
2022-08-04T08:54:15.537Z,2.00
2022-08-04T08:55:21.573Z,2.00
2022-08-04T08:56:15.516Z,1.90
2022-08-04T08:57:15.546Z,1.80
2022-08-04T08:58:15.497Z,2.20
2022-08-04T08:59:15.529Z,2.00
2022-08-04T09:00:15.490Z,2.00
2022-08-04T09:01:15.537Z,2.00
2022-08-04T09:02:15.458Z,2.00
2022-08-04T09:03:15.456Z,2.00
2022-08-04T09:04:22.723Z,2.20
2022-08-04T09:05:15.468Z,2.20
2022-08-04T09:06:15.418Z,2.00
2022-08-04T09:07:15.407Z,2.00
2022-08-04T09:08:15.400Z,1.90
2022-08-04T09:09:15.392Z,2.10
2022-08-04T09:10:15.397Z,2.10
2022-08-04T09:11:15.407Z,1.70
2022-08-04T09:12:15.373Z,1.70
2022-08-04T09:13:15.370Z,1.70
2022-08-04T09:14:15.363Z,1.70
2022-08-04T09:15:15.346Z,1.70
2022-08-04T09:16:15.349Z,1.90
2022-08-04T09:17:15.353Z,1.70
2022-08-04T09:18:15.325Z,1.60
2022-08-04T09:19:22.912Z,1.70
2022-08-04T09:20:15.311Z,1.90
2022-08-04T09:21:15.315Z,1.80
2022-08-04T09:22:15.267Z,1.70
2022-08-04T09:23:15.257Z,1.70
2022-08-04T09:24:35.906Z,1.60
2022-08-04T09:25:15.257Z,1.60
2022-08-04T09:26:15.245Z,1.90
2022-08-04T09:27:15.236Z,1.90
2022-08-04T09:28:17.405Z,1.70
2022-08-04T09:29:15.197Z,1.60
2022-08-04T09:30:15.195Z,1.60
2022-08-04T09:31:15.179Z,1.40
2022-08-04T09:32:15.167Z,1.60
2022-08-04T09:33:16.270Z,1.70
2022-08-04T09:34:15.156Z,1.60
2022-08-04T09:35:16.073Z,1.70
2022-08-04T09:36:15.130Z,1.50
2022-08-04T09:37:15.140Z,1.70
2022-08-04T09:38:15.106Z,1.60
2022-08-04T09:39:15.154Z,1.80
2022-08-04T09:40:29.191Z,1.70
2022-08-04T09:41:19.838Z,2.00
2022-08-04T09:42:25.644Z,1.80
2022-08-04T09:43:15.068Z,1.60
2022-08-04T09:44:50.860Z,1.80
2022-08-04T09:45:20.458Z,1.50
2022-08-04T09:46:15.046Z,1.80
2022-08-04T09:47:15.052Z,1.60
2022-08-04T09:48:15.013Z,1.80
2022-08-04T09:49:14.995Z,1.70
2022-08-04T09:50:15.059Z,1.80
2022-08-04T09:51:14.991Z,1.80
2022-08-04T09:52:14.968Z,1.80
2022-08-04T09:53:14.961Z,1.80
2022-08-04T09:54:31.029Z,1.80
2022-08-04T09:55:14.966Z,1.70
2022-08-04T09:56:14.958Z,1.80
2022-08-04T09:57:14.927Z,1.60
2022-08-04T09:58:14.909Z,1.60
2022-08-04T09:59:14.897Z,1.70
2022-08-04T10:00:14.978Z,1.40
2022-08-04T10:01:16.785Z,1.70
2022-08-04T10:02:14.998Z,2.70
2022-08-04T10:03:19.666Z,2.20
2022-08-04T10:04:14.917Z,2.90
2022-08-04T10:05:14.850Z,3.40
2022-08-04T10:06:14.870Z,2.20
2022-08-04T10:07:14.830Z,2.20
2022-08-04T10:08:16.186Z,1.90
2022-08-04T10:09:14.822Z,1.80
2022-08-04T10:10:14.919Z,1.60
2022-08-04T10:11:14.807Z,1.70
2022-08-04T10:12:14.780Z,1.40
2022-08-04T10:13:14.757Z,1.50
2022-08-04T10:14:14.776Z,1.50
2022-08-04T10:15:14.776Z,1.80
2022-08-04T10:16:14.775Z,1.80
2022-08-04T10:17:14.749Z,1.40
2022-08-04T10:18:14.718Z,1.50
2022-08-04T10:19:14.717Z,1.50
2022-08-04T10:20:14.747Z,1.50
2022-08-04T10:21:15.828Z,1.50
2022-08-04T10:22:29.362Z,1.60
2022-08-04T10:23:14.683Z,1.70
2022-08-04T10:24:14.666Z,1.60
2022-08-04T10:25:39.017Z,1.50
2022-08-04T10:26:14.642Z,1.50
2022-08-04T10:27:14.675Z,1.40
2022-08-04T10:28:14.622Z,1.40
2022-08-04T10:29:14.598Z,1.60
2022-08-04T10:30:14.685Z,1.50
2022-08-04T10:31:14.598Z,1.60
2022-08-04T10:32:14.584Z,1.70
2022-08-04T10:33:14.947Z,2.80
2022-08-04T10:34:14.575Z,2.70
2022-08-04T10:35:14.630Z,1.60
2022-08-04T10:36:14.542Z,1.70
2022-08-04T10:37:14.527Z,1.30
2022-08-04T10:38:14.527Z,2.00
2022-08-04T10:39:42.684Z,1.80
2022-08-04T10:40:14.739Z,1.70
2022-08-04T10:41:14.485Z,1.50
2022-08-04T10:42:14.475Z,1.50
2022-08-04T10:43:20.801Z,1.70
2022-08-04T10:44:14.473Z,1.70
2022-08-04T10:45:14.456Z,1.50
2022-08-04T10:46:14.442Z,1.60
2022-08-04T10:47:14.495Z,1.30
2022-08-04T10:48:14.419Z,1.40
2022-08-04T10:49:14.410Z,1.40
2022-08-04T10:50:14.421Z,1.40
2022-08-04T10:51:14.382Z,1.10
2022-08-04T10:52:14.378Z,1.40
2022-08-04T10:53:14.373Z,1.20
2022-08-04T10:54:14.383Z,1.30
2022-08-04T10:55:14.366Z,1.30
2022-08-04T10:56:14.338Z,1.30
2022-08-04T10:57:16.565Z,1.40
2022-08-04T10:58:14.325Z,1.50
2022-08-04T10:59:14.321Z,1.40
2022-08-04T11:00:14.341Z,1.40
2022-08-04T11:02:01.650Z,1.60
2022-08-04T11:02:16.646Z,1.40
2022-08-04T11:03:14.362Z,1.40
2022-08-04T11:04:14.264Z,1.40
2022-08-04T11:05:14.276Z,1.50
2022-08-04T11:06:14.254Z,1.60
2022-08-04T11:07:14.297Z,1.50
2022-08-04T11:08:17.566Z,1.70
2022-08-04T11:09:15.006Z,1.60
2022-08-04T11:10:14.215Z,1.30
2022-08-04T11:11:14.193Z,1.70
2022-08-04T11:12:14.192Z,1.40
2022-08-04T11:13:22.102Z,1.60
2022-08-04T11:14:14.187Z,1.30
2022-08-04T11:15:14.178Z,1.50
2022-08-04T11:16:14.256Z,1.40
2022-08-04T11:17:14.190Z,1.40
2022-08-04T11:18:16.972Z,1.40
2022-08-04T11:19:14.113Z,1.30
2022-08-04T11:21:14.093Z,1.40
2022-08-04T11:22:14.085Z,1.50
2022-08-04T11:23:14.091Z,1.30
2022-08-04T11:24:14.073Z,1.30
2022-08-04T11:25:14.077Z,1.30
2022-08-04T11:26:14.088Z,1.60
2022-08-04T11:27:14.126Z,1.40
2022-08-04T11:28:14.031Z,1.30
2022-08-04T11:29:14.033Z,2.50
2022-08-04T11:30:14.055Z,1.20
2022-08-04T11:31:13.998Z,1.70
2022-08-04T11:32:13.979Z,1.30
2022-08-04T11:33:14.008Z,1.30
2022-08-04T11:34:13.987Z,1.30
2022-08-04T11:35:13.967Z,1.10
2022-08-04T11:36:13.967Z,1.50
2022-08-04T11:37:14.750Z,1.40
2022-08-04T11:38:13.933Z,1.30
2022-08-04T11:39:14.041Z,1.50
2022-08-04T11:40:14.049Z,1.50
2022-08-04T11:41:13.898Z,1.30
2022-08-04T11:42:13.889Z,1.40
2022-08-04T11:43:13.885Z,1.30
2022-08-04T11:44:13.923Z,1.50
2022-08-04T11:45:13.893Z,1.20
2022-08-04T11:46:13.884Z,1.40
2022-08-04T11:47:13.935Z,1.50
2022-08-04T11:48:13.830Z,1.30
2022-08-04T11:49:13.823Z,1.40
2022-08-04T11:50:13.851Z,1.40
2022-08-04T11:51:13.791Z,1.30
2022-08-04T11:52:13.794Z,1.40
2022-08-04T11:53:13.797Z,1.30
2022-08-04T11:54:13.787Z,1.10
2022-08-04T11:55:13.773Z,1.10
2022-08-04T11:56:15.249Z,1.00
2022-08-04T11:57:13.803Z,1.30
2022-08-04T11:58:13.761Z,1.30
2022-08-04T11:59:13.736Z,1.30
2022-08-04T12:00:13.758Z,1.40
2022-08-04T12:01:13.709Z,1.60
2022-08-04T12:02:16.750Z,1.50
2022-08-04T12:03:13.688Z,1.20
2022-08-04T12:04:13.701Z,1.50
2022-08-04T12:05:32.865Z,1.30
2022-08-04T12:06:13.687Z,1.40
2022-08-04T12:07:30.947Z,1.40
2022-08-04T12:08:13.639Z,1.40
2022-08-04T12:09:13.652Z,1.30
2022-08-04T12:10:13.653Z,1.30
2022-08-04T12:11:13.607Z,1.20
2022-08-04T12:12:13.596Z,1.50
2022-08-04T12:13:13.679Z,1.40
2022-08-04T12:14:13.589Z,1.40
2022-08-04T12:15:15.239Z,1.10
2022-08-04T12:16:13.610Z,1.30
2022-08-04T12:17:13.571Z,1.10
2022-08-04T12:18:13.545Z,1.30
2022-08-04T12:19:15.465Z,1.30
2022-08-04T12:20:38.207Z,1.30
2022-08-04T12:21:14.933Z,1.30
2022-08-04T12:22:13.501Z,1.40
2022-08-04T12:23:13.516Z,1.50
2022-08-04T12:24:13.498Z,1.50
2022-08-04T12:25:13.494Z,1.50
2022-08-04T12:26:13.462Z,1.20
2022-08-04T12:27:13.559Z,1.40
2022-08-04T12:28:13.435Z,1.50
2022-08-04T12:29:13.501Z,1.30
2022-08-04T12:31:00.486Z,1.40
2022-08-04T12:31:13.437Z,1.30
2022-08-04T12:32:13.403Z,1.50
2022-08-04T12:33:17.781Z,1.30
2022-08-04T12:34:13.394Z,1.20
2022-08-04T12:35:13.419Z,1.60
2022-08-04T12:36:15.755Z,1.50
2022-08-04T12:37:13.394Z,1.40
2022-08-04T12:38:13.338Z,1.40
2022-08-04T12:39:13.419Z,1.50
2022-08-04T12:40:30.559Z,1.10
2022-08-04T12:41:13.341Z,1.40
2022-08-04T12:42:15.973Z,1.20
2022-08-04T12:43:13.334Z,1.10
2022-08-04T12:44:36.914Z,1.30
2022-08-04T12:45:13.307Z,1.40
2022-08-04T12:46:13.326Z,1.30
2022-08-04T12:47:27.478Z,1.20
2022-08-04T12:48:14.969Z,1.50
2022-08-04T12:49:13.268Z,1.30
2022-08-04T12:50:13.252Z,1.70
2022-08-04T12:52:05.937Z,1.20
2022-08-04T12:52:13.241Z,1.30
2022-08-04T12:53:13.207Z,1.20
2022-08-04T12:54:13.212Z,1.20
2022-08-04T12:55:13.293Z,1.50
2022-08-04T12:56:13.188Z,1.20
2022-08-04T12:57:13.212Z,1.10
2022-08-04T12:58:13.153Z,1.30
2022-08-04T12:59:13.357Z,1.40
2022-08-04T13:00:13.149Z,1.40
2022-08-04T13:02:10.455Z,1.50
2022-08-04T13:02:16.124Z,1.00
2022-08-04T13:03:13.145Z,1.10
2022-08-04T13:04:13.105Z,1.30
2022-08-04T13:05:17.248Z,1.20
2022-08-04T13:06:13.097Z,1.30
2022-08-04T13:07:13.125Z,1.30
2022-08-04T13:08:13.064Z,1.40
2022-08-04T13:09:17.475Z,1.20
2022-08-04T13:10:13.080Z,1.20
2022-08-04T13:11:13.041Z,1.30
2022-08-04T13:12:13.022Z,1.20
2022-08-04T13:13:13.019Z,1.10
2022-08-04T13:14:26.734Z,1.10
2022-08-04T13:15:17.624Z,1.10
2022-08-04T13:16:14.396Z,1.20
2022-08-04T13:17:12.987Z,1.30
2022-08-04T13:18:14.771Z,1.00
2022-08-04T13:19:12.976Z,1.10
2022-08-04T13:20:14.179Z,1.50
2022-08-04T13:21:20.398Z,1.40